sensor_id;sensor_type;location;lat;lon;timestamp;P1;durP1;ratioP1;P2;durP2;ratioP2
82793;SDS011;72533;52.852;6.176;2024-02-26T00:02:04;14.37;;;8.70;;
82793;SDS011;72533;52.852;6.176;2024-02-26T00:04:29;17.20;;;9.47;;
82793;SDS011;72533;52.852;6.176;2024-02-26T00:06:54;15.60;;;10.47;;
82793;SDS011;72533;52.852;6.176;2024-02-26T00:09:20;17.80;;;12.80;;
82793;SDS011;72533;52.852;6.176;2024-02-26T00:11:46;13.63;;;8.87;;
82793;SDS011;72533;52.852;6.176;2024-02-26T00:14:11;16.83;;;8.50;;
82793;SDS011;72533;52.852;6.176;2024-02-26T00:16:36;13.93;;;8.67;;
82793;SDS011;72533;52.852;6.176;2024-02-26T00:19:01;15.53;;;9.47;;
82793;SDS011;72533;52.852;6.176;2024-02-26T00:21:27;16.63;;;10.37;;
82793;SDS011;72533;52.852;6.176;2024-02-26T00:23:53;15.27;;;10.52;;
82793;SDS011;72533;52.852;6.176;2024-02-26T00:26:18;16.30;;;10.95;;
82793;SDS011;72533;52.852;6.176;2024-02-26T00:28:43;13.68;;;9.23;;
82793;SDS011;72533;52.852;6.176;2024-02-26T00:31:09;16.13;;;7.63;;
82793;SDS011;72533;52.852;6.176;2024-02-26T00:33:34;13.80;;;9.03;;
82793;SDS011;72533;52.852;6.176;2024-02-26T00:35:59;15.23;;;8.53;;
82793;SDS011;72533;52.852;6.176;2024-02-26T00:38:24;13.60;;;7.83;;
82793;SDS011;72533;52.852;6.176;2024-02-26T00:40:49;19.00;;;9.77;;
82793;SDS011;72533;52.852;6.176;2024-02-26T00:43:14;18.03;;;9.47;;
82793;SDS011;72533;52.852;6.176;2024-02-26T00:45:40;14.90;;;9.37;;
82793;SDS011;72533;52.852;6.176;2024-02-26T00:48:05;13.93;;;10.40;;
82793;SDS011;72533;52.852;6.176;2024-02-26T00:50:31;18.25;;;11.10;;
82793;SDS011;72533;52.852;6.176;2024-02-26T00:52:56;14.40;;;7.55;;
82793;SDS011;72533;52.852;6.176;2024-02-26T00:55:21;15.73;;;8.67;;
82793;SDS011;72533;52.852;6.176;2024-02-26T00:57:46;17.10;;;9.70;;
82793;SDS011;72533;52.852;6.176;2024-02-26T01:00:12;17.50;;;11.43;;
82793;SDS011;72533;52.852;6.176;2024-02-26T01:02:38;18.52;;;9.95;;
82793;SDS011;72533;52.852;6.176;2024-02-26T01:05:04;23.80;;;10.65;;
82793;SDS011;72533;52.852;6.176;2024-02-26T01:07:29;16.05;;;9.68;;
82793;SDS011;72533;52.852;6.176;2024-02-26T01:09:58;15.77;;;9.40;;
82793;SDS011;72533;52.852;6.176;2024-02-26T01:12:23;18.30;;;10.00;;
82793;SDS011;72533;52.852;6.176;2024-02-26T01:14:48;16.87;;;9.47;;
82793;SDS011;72533;52.852;6.176;2024-02-26T01:17:13;15.73;;;8.33;;
82793;SDS011;72533;52.852;6.176;2024-02-26T01:19:39;17.53;;;9.97;;
82793;SDS011;72533;52.852;6.176;2024-02-26T01:22:04;14.97;;;7.23;;
82793;SDS011;72533;52.852;6.176;2024-02-26T01:24:29;17.30;;;9.83;;
82793;SDS011;72533;52.852;6.176;2024-02-26T01:26:54;17.87;;;8.47;;
82793;SDS011;72533;52.852;6.176;2024-02-26T01:29:19;14.83;;;8.47;;
82793;SDS011;72533;52.852;6.176;2024-02-26T01:31:44;15.27;;;9.20;;
82793;SDS011;72533;52.852;6.176;2024-02-26T01:34:10;15.67;;;7.97;;
82793;SDS011;72533;52.852;6.176;2024-02-26T01:36:35;18.50;;;9.50;;
82793;SDS011;72533;52.852;6.176;2024-02-26T01:39:00;17.50;;;9.20;;
82793;SDS011;72533;52.852;6.176;2024-02-26T01:41:28;17.77;;;9.18;;
82793;SDS011;72533;52.852;6.176;2024-02-26T01:43:53;19.40;;;9.47;;
82793;SDS011;72533;52.852;6.176;2024-02-26T01:46:18;16.97;;;8.97;;
82793;SDS011;72533;52.852;6.176;2024-02-26T01:48:44;20.27;;;10.75;;
82793;SDS011;72533;52.852;6.176;2024-02-26T01:51:10;19.05;;;11.80;;
82793;SDS011;72533;52.852;6.176;2024-02-26T01:53:37;22.60;;;11.27;;
82793;SDS011;72533;52.852;6.176;2024-02-26T01:56:02;29.90;;;14.47;;
82793;SDS011;72533;52.852;6.176;2024-02-26T01:58:28;24.95;;;10.45;;
82793;SDS011;72533;52.852;6.176;2024-02-26T02:00:55;20.05;;;11.18;;
82793;SDS011;72533;52.852;6.176;2024-02-26T02:03:20;19.77;;;10.27;;
82793;SDS011;72533;52.852;6.176;2024-02-26T02:05:46;25.53;;;14.30;;
82793;SDS011;72533;52.852;6.176;2024-02-26T02:08:11;22.20;;;11.83;;
82793;SDS011;72533;52.852;6.176;2024-02-26T02:10:39;29.27;;;14.50;;
82793;SDS011;72533;52.852;6.176;2024-02-26T02:13:05;21.42;;;12.05;;
82793;SDS011;72533;52.852;6.176;2024-02-26T02:15:31;25.00;;;13.57;;
82793;SDS011;72533;52.852;6.176;2024-02-26T02:17:56;25.10;;;11.77;;
82793;SDS011;72533;52.852;6.176;2024-02-26T02:20:25;26.13;;;16.40;;
82793;SDS011;72533;52.852;6.176;2024-02-26T02:22:50;32.35;;;16.02;;
82793;SDS011;72533;52.852;6.176;2024-02-26T02:25:15;27.63;;;13.23;;
82793;SDS011;72533;52.852;6.176;2024-02-26T02:27:40;33.27;;;16.97;;
82793;SDS011;72533;52.852;6.176;2024-02-26T02:30:07;30.90;;;16.85;;
82793;SDS011;72533;52.852;6.176;2024-02-26T02:32:33;29.98;;;15.23;;
82793;SDS011;72533;52.852;6.176;2024-02-26T02:34:58;29.77;;;15.27;;
82793;SDS011;72533;52.852;6.176;2024-02-26T02:37:23;27.13;;;10.27;;
82793;SDS011;72533;52.852;6.176;2024-02-26T02:39:48;29.40;;;14.30;;
82793;SDS011;72533;52.852;6.176;2024-02-26T02:42:14;30.93;;;14.90;;
82793;SDS011;72533;52.852;6.176;2024-02-26T02:44:39;32.83;;;15.57;;
82793;SDS011;72533;52.852;6.176;2024-02-26T02:47:04;31.67;;;15.10;;
82793;SDS011;72533;52.852;6.176;2024-02-26T02:49:29;25.90;;;13.70;;
82793;SDS011;72533;52.852;6.176;2024-02-26T02:51:54;24.97;;;11.73;;
82793;SDS011;72533;52.852;6.176;2024-02-26T02:54:20;37.40;;;21.75;;
82793;SDS011;72533;52.852;6.176;2024-02-26T02:56:45;45.97;;;25.40;;
82793;SDS011;72533;52.852;6.176;2024-02-26T02:59:10;26.00;;;17.20;;
82793;SDS011;72533;52.852;6.176;2024-02-26T03:01:35;45.77;;;23.20;;
82793;SDS011;72533;52.852;6.176;2024-02-26T03:04:01;31.37;;;14.50;;
82793;SDS011;72533;52.852;6.176;2024-02-26T03:06:26;31.47;;;13.47;;
82793;SDS011;72533;52.852;6.176;2024-02-26T03:08:52;31.17;;;15.60;;
82793;SDS011;72533;52.852;6.176;2024-02-26T03:11:17;33.50;;;16.83;;
82793;SDS011;72533;52.852;6.176;2024-02-26T03:13:44;35.50;;;19.42;;
82793;SDS011;72533;52.852;6.176;2024-02-26T03:16:09;41.10;;;20.17;;
82793;SDS011;72533;52.852;6.176;2024-02-26T03:18:34;46.80;;;26.67;;
82793;SDS011;72533;52.852;6.176;2024-02-26T03:20:59;38.57;;;23.10;;
82793;SDS011;72533;52.852;6.176;2024-02-26T03:23:24;31.67;;;16.30;;
82793;SDS011;72533;52.852;6.176;2024-02-26T03:25:50;27.63;;;14.87;;
82793;SDS011;72533;52.852;6.176;2024-02-26T03:28:15;34.43;;;18.00;;
82793;SDS011;72533;52.852;6.176;2024-02-26T03:30:40;35.13;;;17.17;;
82793;SDS011;72533;52.852;6.176;2024-02-26T03:33:05;29.73;;;16.17;;
82793;SDS011;72533;52.852;6.176;2024-02-26T03:35:30;26.00;;;15.13;;
82793;SDS011;72533;52.852;6.176;2024-02-26T03:37:56;30.40;;;14.60;;
82793;SDS011;72533;52.852;6.176;2024-02-26T03:40:21;28.33;;;15.17;;
82793;SDS011;72533;52.852;6.176;2024-02-26T03:42:46;29.93;;;17.20;;
82793;SDS011;72533;52.852;6.176;2024-02-26T03:45:11;22.87;;;10.70;;
82793;SDS011;72533;52.852;6.176;2024-02-26T03:47:39;29.17;;;14.47;;
82793;SDS011;72533;52.852;6.176;2024-02-26T03:50:05;24.17;;;15.02;;
82793;SDS011;72533;52.852;6.176;2024-02-26T03:52:31;28.77;;;13.70;;
82793;SDS011;72533;52.852;6.176;2024-02-26T03:54:56;31.53;;;15.50;;
82793;SDS011;72533;52.852;6.176;2024-02-26T03:57:21;20.43;;;11.47;;
82793;SDS011;72533;52.852;6.176;2024-02-26T03:59:46;28.07;;;13.57;;
82793;SDS011;72533;52.852;6.176;2024-02-26T04:02:11;23.17;;;11.67;;
82793;SDS011;72533;52.852;6.176;2024-02-26T04:04:36;22.63;;;13.20;;
82793;SDS011;72533;52.852;6.176;2024-02-26T04:07:02;23.67;;;13.33;;
82793;SDS011;72533;52.852;6.176;2024-02-26T04:09:28;20.33;;;15.23;;
82793;SDS011;72533;52.852;6.176;2024-02-26T04:14:20;27.70;;;16.98;;
82793;SDS011;72533;52.852;6.176;2024-02-26T04:16:46;19.17;;;11.50;;
82793;SDS011;72533;52.852;6.176;2024-02-26T04:19:11;28.13;;;14.73;;
82793;SDS011;72533;52.852;6.176;2024-02-26T04:21:36;25.57;;;14.10;;
82793;SDS011;72533;52.852;6.176;2024-02-26T04:24:01;24.73;;;14.13;;
82793;SDS011;72533;52.852;6.176;2024-02-26T04:26:27;21.73;;;11.05;;
82793;SDS011;72533;52.852;6.176;2024-02-26T04:28:53;26.52;;;17.15;;
82793;SDS011;72533;52.852;6.176;2024-02-26T04:31:18;17.67;;;10.63;;
82793;SDS011;72533;52.852;6.176;2024-02-26T04:33:43;15.93;;;10.52;;
82793;SDS011;72533;52.852;6.176;2024-02-26T04:36:13;13.37;;;8.13;;
82793;SDS011;72533;52.852;6.176;2024-02-26T04:38:38;15.02;;;9.50;;
82793;SDS011;72533;52.852;6.176;2024-02-26T04:41:04;15.90;;;8.90;;
82793;SDS011;72533;52.852;6.176;2024-02-26T04:43:29;19.30;;;10.43;;
82793;SDS011;72533;52.852;6.176;2024-02-26T04:45:54;16.60;;;9.30;;
82793;SDS011;72533;52.852;6.176;2024-02-26T04:48:21;20.50;;;10.52;;
82793;SDS011;72533;52.852;6.176;2024-02-26T04:50:48;11.20;;;6.18;;
82793;SDS011;72533;52.852;6.176;2024-02-26T04:53:13;16.47;;;10.43;;
82793;SDS011;72533;52.852;6.176;2024-02-26T04:55:38;13.30;;;7.43;;
82793;SDS011;72533;52.852;6.176;2024-02-26T04:58:03;16.27;;;8.07;;
82793;SDS011;72533;52.852;6.176;2024-02-26T05:00:28;17.63;;;8.83;;
82793;SDS011;72533;52.852;6.176;2024-02-26T05:02:54;15.80;;;9.73;;
82793;SDS011;72533;52.852;6.176;2024-02-26T05:05:19;15.97;;;8.33;;
82793;SDS011;72533;52.852;6.176;2024-02-26T05:07:44;17.83;;;8.37;;
82793;SDS011;72533;52.852;6.176;2024-02-26T05:10:10;14.98;;;8.75;;
82793;SDS011;72533;52.852;6.176;2024-02-26T05:12:35;13.55;;;6.80;;
82793;SDS011;72533;52.852;6.176;2024-02-26T05:15:01;17.53;;;8.63;;
82793;SDS011;72533;52.852;6.176;2024-02-26T05:17:26;16.08;;;7.72;;
82793;SDS011;72533;52.852;6.176;2024-02-26T05:19:52;12.70;;;6.70;;
82793;SDS011;72533;52.852;6.176;2024-02-26T05:22:17;12.57;;;7.23;;
82793;SDS011;72533;52.852;6.176;2024-02-26T05:24:42;12.60;;;6.13;;
82793;SDS011;72533;52.852;6.176;2024-02-26T05:27:07;13.20;;;6.97;;
82793;SDS011;72533;52.852;6.176;2024-02-26T05:29:33;15.40;;;7.70;;
82793;SDS011;72533;52.852;6.176;2024-02-26T05:31:58;17.00;;;8.60;;
82793;SDS011;72533;52.852;6.176;2024-02-26T05:34:23;12.23;;;6.07;;
82793;SDS011;72533;52.852;6.176;2024-02-26T05:36:48;15.77;;;8.37;;
82793;SDS011;72533;52.852;6.176;2024-02-26T05:39:13;11.43;;;6.43;;
82793;SDS011;72533;52.852;6.176;2024-02-26T05:41:39;11.67;;;7.13;;
82793;SDS011;72533;52.852;6.176;2024-02-26T05:44:04;9.93;;;5.03;;
82793;SDS011;72533;52.852;6.176;2024-02-26T05:46:29;12.73;;;5.37;;
82793;SDS011;72533;52.852;6.176;2024-02-26T05:48:54;10.93;;;6.97;;
82793;SDS011;72533;52.852;6.176;2024-02-26T05:51:20;13.80;;;8.60;;
82793;SDS011;72533;52.852;6.176;2024-02-26T05:53:45;12.07;;;6.40;;
82793;SDS011;72533;52.852;6.176;2024-02-26T05:56:12;8.68;;;4.35;;
82793;SDS011;72533;52.852;6.176;2024-02-26T05:58:37;16.13;;;7.60;;
82793;SDS011;72533;52.852;6.176;2024-02-26T06:01:03;12.65;;;7.20;;
82793;SDS011;72533;52.852;6.176;2024-02-26T06:03:28;14.67;;;9.43;;
82793;SDS011;72533;52.852;6.176;2024-02-26T06:05:53;12.30;;;8.10;;
82793;SDS011;72533;52.852;6.176;2024-02-26T06:08:18;9.23;;;4.90;;
82793;SDS011;72533;52.852;6.176;2024-02-26T06:10:43;12.83;;;6.87;;
82793;SDS011;72533;52.852;6.176;2024-02-26T06:13:09;11.53;;;6.23;;
82793;SDS011;72533;52.852;6.176;2024-02-26T06:15:34;12.20;;;4.80;;
82793;SDS011;72533;52.852;6.176;2024-02-26T06:17:59;8.77;;;4.27;;
82793;SDS011;72533;52.852;6.176;2024-02-26T06:20:24;8.67;;;4.30;;
82793;SDS011;72533;52.852;6.176;2024-02-26T06:22:50;7.03;;;4.00;;
82793;SDS011;72533;52.852;6.176;2024-02-26T06:25:15;9.52;;;5.15;;
82793;SDS011;72533;52.852;6.176;2024-02-26T06:27:41;11.18;;;5.75;;
82793;SDS011;72533;52.852;6.176;2024-02-26T06:30:06;9.90;;;4.37;;
82793;SDS011;72533;52.852;6.176;2024-02-26T06:32:31;8.65;;;4.68;;
82793;SDS011;72533;52.852;6.176;2024-02-26T06:34:57;8.20;;;4.13;;
82793;SDS011;72533;52.852;6.176;2024-02-26T06:37:22;9.35;;;7.00;;
82793;SDS011;72533;52.852;6.176;2024-02-26T06:39:47;9.67;;;3.53;;
82793;SDS011;72533;52.852;6.176;2024-02-26T06:42:12;11.27;;;4.47;;
82793;SDS011;72533;52.852;6.176;2024-02-26T06:44:38;9.53;;;5.33;;
82793;SDS011;72533;52.852;6.176;2024-02-26T06:47:03;6.63;;;3.57;;
82793;SDS011;72533;52.852;6.176;2024-02-26T06:49:29;7.90;;;3.50;;
82793;SDS011;72533;52.852;6.176;2024-02-26T06:51:54;9.43;;;4.65;;
82793;SDS011;72533;52.852;6.176;2024-02-26T06:54:19;7.40;;;3.47;;
82793;SDS011;72533;52.852;6.176;2024-02-26T06:56:44;8.77;;;5.30;;
82793;SDS011;72533;52.852;6.176;2024-02-26T06:59:10;7.10;;;4.23;;
82793;SDS011;72533;52.852;6.176;2024-02-26T07:01:35;8.23;;;4.22;;
82793;SDS011;72533;52.852;6.176;2024-02-26T07:04:00;7.57;;;3.40;;
82793;SDS011;72533;52.852;6.176;2024-02-26T07:06:26;9.23;;;4.90;;
82793;SDS011;72533;52.852;6.176;2024-02-26T07:08:51;9.95;;;4.25;;
82793;SDS011;72533;52.852;6.176;2024-02-26T07:11:17;8.00;;;3.63;;
82793;SDS011;72533;52.852;6.176;2024-02-26T07:13:44;7.68;;;3.40;;
82793;SDS011;72533;52.852;6.176;2024-02-26T07:16:09;8.60;;;4.87;;
82793;SDS011;72533;52.852;6.176;2024-02-26T07:18:35;9.05;;;4.50;;
82793;SDS011;72533;52.852;6.176;2024-02-26T07:21:03;6.33;;;3.37;;
82793;SDS011;72533;52.852;6.176;2024-02-26T07:23:29;8.60;;;4.15;;
82793;SDS011;72533;52.852;6.176;2024-02-26T07:25:54;7.43;;;4.03;;
82793;SDS011;72533;52.852;6.176;2024-02-26T07:28:19;7.37;;;4.43;;
82793;SDS011;72533;52.852;6.176;2024-02-26T07:30:44;6.63;;;3.73;;
82793;SDS011;72533;52.852;6.176;2024-02-26T07:33:09;6.80;;;5.00;;
82793;SDS011;72533;52.852;6.176;2024-02-26T07:35:35;8.70;;;6.43;;
82793;SDS011;72533;52.852;6.176;2024-02-26T07:38:01;8.13;;;4.72;;
82793;SDS011;72533;52.852;6.176;2024-02-26T07:40:26;9.07;;;6.03;;
82793;SDS011;72533;52.852;6.176;2024-02-26T07:42:51;7.27;;;4.60;;
82793;SDS011;72533;52.852;6.176;2024-02-26T07:45:17;9.47;;;5.70;;
82793;SDS011;72533;52.852;6.176;2024-02-26T07:47:44;10.20;;;6.63;;
82793;SDS011;72533;52.852;6.176;2024-02-26T07:50:10;8.37;;;5.17;;
82793;SDS011;72533;52.852;6.176;2024-02-26T07:52:36;8.10;;;4.75;;
82793;SDS011;72533;52.852;6.176;2024-02-26T07:55:02;7.90;;;4.90;;
82793;SDS011;72533;52.852;6.176;2024-02-26T07:57:27;8.17;;;4.23;;
82793;SDS011;72533;52.852;6.176;2024-02-26T07:59:52;9.67;;;4.87;;
82793;SDS011;72533;52.852;6.176;2024-02-26T08:02:17;7.97;;;4.00;;
82793;SDS011;72533;52.852;6.176;2024-02-26T08:04:42;7.97;;;3.87;;
82793;SDS011;72533;52.852;6.176;2024-02-26T08:07:08;10.68;;;4.63;;
82793;SDS011;72533;52.852;6.176;2024-02-26T08:09:33;7.53;;;4.63;;
82793;SDS011;72533;52.852;6.176;2024-02-26T08:11:58;8.47;;;5.20;;
82793;SDS011;72533;52.852;6.176;2024-02-26T08:14:23;9.10;;;5.37;;
82793;SDS011;72533;52.852;6.176;2024-02-26T08:16:49;8.40;;;4.63;;
82793;SDS011;72533;52.852;6.176;2024-02-26T08:19:14;8.73;;;5.40;;
82793;SDS011;72533;52.852;6.176;2024-02-26T08:21:40;9.93;;;6.20;;
82793;SDS011;72533;52.852;6.176;2024-02-26T08:24:05;7.85;;;4.22;;
82793;SDS011;72533;52.852;6.176;2024-02-26T08:26:30;7.87;;;3.60;;
82793;SDS011;72533;52.852;6.176;2024-02-26T08:28:55;7.47;;;4.30;;
82793;SDS011;72533;52.852;6.176;2024-02-26T08:31:21;8.63;;;4.90;;
82793;SDS011;72533;52.852;6.176;2024-02-26T08:33:46;9.73;;;5.37;;
82793;SDS011;72533;52.852;6.176;2024-02-26T08:36:11;8.77;;;4.33;;
82793;SDS011;72533;52.852;6.176;2024-02-26T08:38:36;7.60;;;4.23;;
82793;SDS011;72533;52.852;6.176;2024-02-26T08:41:02;9.87;;;3.87;;
82793;SDS011;72533;52.852;6.176;2024-02-26T08:43:30;8.18;;;4.43;;
82793;SDS011;72533;52.852;6.176;2024-02-26T08:45:56;8.57;;;4.80;;
82793;SDS011;72533;52.852;6.176;2024-02-26T08:48:21;9.50;;;7.43;;
82793;SDS011;72533;52.852;6.176;2024-02-26T08:50:46;10.67;;;4.90;;
82793;SDS011;72533;52.852;6.176;2024-02-26T08:53:11;7.87;;;3.77;;
82793;SDS011;72533;52.852;6.176;2024-02-26T08:55:36;6.70;;;3.63;;
82793;SDS011;72533;52.852;6.176;2024-02-26T08:58:02;8.73;;;5.97;;
82793;SDS011;72533;52.852;6.176;2024-02-26T09:00:27;9.77;;;6.27;;
82793;SDS011;72533;52.852;6.176;2024-02-26T09:02:52;8.07;;;5.40;;
82793;SDS011;72533;52.852;6.176;2024-02-26T09:05:17;7.20;;;3.70;;
82793;SDS011;72533;52.852;6.176;2024-02-26T09:07:43;9.73;;;6.17;;
82793;SDS011;72533;52.852;6.176;2024-02-26T09:10:08;8.82;;;5.10;;
82793;SDS011;72533;52.852;6.176;2024-02-26T09:12:35;6.10;;;3.47;;
82793;SDS011;72533;52.852;6.176;2024-02-26T09:15:00;7.67;;;4.47;;
82793;SDS011;72533;52.852;6.176;2024-02-26T09:17:25;8.17;;;3.67;;
82793;SDS011;72533;52.852;6.176;2024-02-26T09:19:51;9.17;;;3.77;;
82793;SDS011;72533;52.852;6.176;2024-02-26T09:22:16;8.30;;;4.43;;
82793;SDS011;72533;52.852;6.176;2024-02-26T09:24:41;8.57;;;4.47;;
82793;SDS011;72533;52.852;6.176;2024-02-26T09:27:06;8.07;;;4.87;;
82793;SDS011;72533;52.852;6.176;2024-02-26T09:29:31;7.10;;;5.17;;
82793;SDS011;72533;52.852;6.176;2024-02-26T09:31:57;8.10;;;5.22;;
82793;SDS011;72533;52.852;6.176;2024-02-26T09:34:23;8.30;;;4.10;;
82793;SDS011;72533;52.852;6.176;2024-02-26T09:36:48;7.57;;;4.43;;
82793;SDS011;72533;52.852;6.176;2024-02-26T09:39:14;9.10;;;4.10;;
82793;SDS011;72533;52.852;6.176;2024-02-26T09:41:45;6.78;;;4.57;;
82793;SDS011;72533;52.852;6.176;2024-02-26T09:44:10;9.33;;;3.87;;
82793;SDS011;72533;52.852;6.176;2024-02-26T09:46:36;7.55;;;3.88;;
82793;SDS011;72533;52.852;6.176;2024-02-26T09:49:02;8.10;;;4.47;;
82793;SDS011;72533;52.852;6.176;2024-02-26T09:51:27;7.00;;;3.80;;
82793;SDS011;72533;52.852;6.176;2024-02-26T09:53:53;8.23;;;4.72;;
82793;SDS011;72533;52.852;6.176;2024-02-26T09:56:19;7.20;;;3.45;;
82793;SDS011;72533;52.852;6.176;2024-02-26T09:58:45;6.90;;;3.65;;
82793;SDS011;72533;52.852;6.176;2024-02-26T10:03:39;8.63;;;4.00;;
82793;SDS011;72533;52.852;6.176;2024-02-26T10:06:06;7.43;;;3.90;;
82793;SDS011;72533;52.852;6.176;2024-02-26T10:08:32;5.63;;;3.35;;
82793;SDS011;72533;52.852;6.176;2024-02-26T10:10:57;8.13;;;4.70;;
82793;SDS011;72533;52.852;6.176;2024-02-26T10:13:22;7.10;;;5.37;;
82793;SDS011;72533;52.852;6.176;2024-02-26T10:15:48;8.07;;;4.95;;
82793;SDS011;72533;52.852;6.176;2024-02-26T10:18:13;6.67;;;3.90;;
82793;SDS011;72533;52.852;6.176;2024-02-26T10:20:38;6.53;;;4.47;;
82793;SDS011;72533;52.852;6.176;2024-02-26T10:23:03;7.63;;;4.20;;
82793;SDS011;72533;52.852;6.176;2024-02-26T10:25:29;6.57;;;3.50;;
82793;SDS011;72533;52.852;6.176;2024-02-26T10:27:58;7.38;;;4.03;;
82793;SDS011;72533;52.852;6.176;2024-02-26T10:30:24;7.95;;;5.22;;
82793;SDS011;72533;52.852;6.176;2024-02-26T10:32:51;8.88;;;4.53;;
82793;SDS011;72533;52.852;6.176;2024-02-26T10:35:16;8.33;;;5.37;;
82793;SDS011;72533;52.852;6.176;2024-02-26T10:37:42;8.88;;;4.35;;
82793;SDS011;72533;52.852;6.176;2024-02-26T10:40:11;10.75;;;4.95;;
82793;SDS011;72533;52.852;6.176;2024-02-26T10:42:36;6.07;;;3.55;;
82793;SDS011;72533;52.852;6.176;2024-02-26T10:45:03;8.13;;;4.72;;
82793;SDS011;72533;52.852;6.176;2024-02-26T10:47:29;6.50;;;3.33;;
82793;SDS011;72533;52.852;6.176;2024-02-26T10:49:54;7.43;;;3.90;;
82793;SDS011;72533;52.852;6.176;2024-02-26T10:52:21;7.13;;;3.88;;
82793;SDS011;72533;52.852;6.176;2024-02-26T10:54:47;6.13;;;3.70;;
82793;SDS011;72533;52.852;6.176;2024-02-26T10:57:15;6.35;;;4.07;;
82793;SDS011;72533;52.852;6.176;2024-02-26T10:59:41;6.03;;;3.78;;
82793;SDS011;72533;52.852;6.176;2024-02-26T11:02:07;7.15;;;4.47;;
82793;SDS011;72533;52.852;6.176;2024-02-26T11:04:33;7.22;;;3.90;;
82793;SDS011;72533;52.852;6.176;2024-02-26T11:06:58;8.00;;;4.05;;
82793;SDS011;72533;52.852;6.176;2024-02-26T11:09:24;6.22;;;3.67;;
82793;SDS011;72533;52.852;6.176;2024-02-26T11:11:50;6.85;;;4.47;;
82793;SDS011;72533;52.852;6.176;2024-02-26T11:14:19;7.07;;;4.45;;
82793;SDS011;72533;52.852;6.176;2024-02-26T11:16:45;6.50;;;3.17;;
82793;SDS011;72533;52.852;6.176;2024-02-26T11:19:11;6.55;;;3.33;;
82793;SDS011;72533;52.852;6.176;2024-02-26T11:21:37;7.03;;;4.30;;
82793;SDS011;72533;52.852;6.176;2024-02-26T11:24:14;6.60;;;4.13;;
82793;SDS011;72533;52.852;6.176;2024-02-26T11:26:42;6.22;;;3.75;;
82793;SDS011;72533;52.852;6.176;2024-02-26T11:29:10;6.95;;;4.40;;
82793;SDS011;72533;52.852;6.176;2024-02-26T11:31:37;7.03;;;4.60;;
82793;SDS011;72533;52.852;6.176;2024-02-26T11:34:02;6.25;;;3.38;;
82793;SDS011;72533;52.852;6.176;2024-02-26T11:36:27;10.15;;;3.53;;
82793;SDS011;72533;52.852;6.176;2024-02-26T11:38:53;6.23;;;4.20;;
82793;SDS011;72533;52.852;6.176;2024-02-26T11:41:19;6.82;;;3.75;;
82793;SDS011;72533;52.852;6.176;2024-02-26T11:46:29;6.50;;;4.00;;
82793;SDS011;72533;52.852;6.176;2024-02-26T11:48:58;7.50;;;6.30;;
82793;SDS011;72533;52.852;6.176;2024-02-26T11:51:28;7.35;;;6.25;;
82793;SDS011;72533;52.852;6.176;2024-02-26T11:53:54;7.30;;;4.78;;
82793;SDS011;72533;52.852;6.176;2024-02-26T11:58:44;6.63;;;4.70;;
82793;SDS011;72533;52.852;6.176;2024-02-26T12:03:54;5.75;;;3.17;;
82793;SDS011;72533;52.852;6.176;2024-02-26T12:06:19;6.13;;;3.42;;
82793;SDS011;72533;52.852;6.176;2024-02-26T12:08:45;6.83;;;4.27;;
82793;SDS011;72533;52.852;6.176;2024-02-26T12:11:14;6.13;;;3.17;;
82793;SDS011;72533;52.852;6.176;2024-02-26T12:13:39;5.97;;;2.80;;
82793;SDS011;72533;52.852;6.176;2024-02-26T12:16:05;6.30;;;3.20;;
82793;SDS011;72533;52.852;6.176;2024-02-26T12:18:30;5.53;;;2.65;;
82793;SDS011;72533;52.852;6.176;2024-02-26T12:21:02;6.20;;;3.53;;
82793;SDS011;72533;52.852;6.176;2024-02-26T12:23:27;6.00;;;2.97;;
82793;SDS011;72533;52.852;6.176;2024-02-26T12:25:53;5.65;;;3.55;;
82793;SDS011;72533;52.852;6.176;2024-02-26T12:28:18;5.40;;;2.75;;
82793;SDS011;72533;52.852;6.176;2024-02-26T12:30:44;4.87;;;2.33;;
82793;SDS011;72533;52.852;6.176;2024-02-26T12:33:09;6.03;;;3.37;;
82793;SDS011;72533;52.852;6.176;2024-02-26T12:35:34;5.57;;;4.60;;
82793;SDS011;72533;52.852;6.176;2024-02-26T12:37:59;6.20;;;3.70;;
82793;SDS011;72533;52.852;6.176;2024-02-26T12:40:25;6.00;;;2.88;;
82793;SDS011;72533;52.852;6.176;2024-02-26T12:42:51;5.90;;;2.83;;
82793;SDS011;72533;52.852;6.176;2024-02-26T12:45:18;6.88;;;5.05;;
82793;SDS011;72533;52.852;6.176;2024-02-26T12:47:45;5.65;;;2.22;;
82793;SDS011;72533;52.852;6.176;2024-02-26T12:50:16;5.95;;;2.88;;
82793;SDS011;72533;52.852;6.176;2024-02-26T12:52:45;6.53;;;3.30;;
82793;SDS011;72533;52.852;6.176;2024-02-26T12:55:20;5.53;;;2.17;;
82793;SDS011;72533;52.852;6.176;2024-02-26T12:57:46;6.05;;;3.75;;
82793;SDS011;72533;52.852;6.176;2024-02-26T13:00:22;6.68;;;3.70;;
82793;SDS011;72533;52.852;6.176;2024-02-26T13:02:47;6.65;;;3.53;;
82793;SDS011;72533;52.852;6.176;2024-02-26T13:05:14;7.05;;;3.50;;
82793;SDS011;72533;52.852;6.176;2024-02-26T13:07:46;6.03;;;3.42;;
82793;SDS011;72533;52.852;6.176;2024-02-26T13:10:15;6.85;;;3.03;;
82793;SDS011;72533;52.852;6.176;2024-02-26T13:12:43;6.72;;;3.50;;
82793;SDS011;72533;52.852;6.176;2024-02-26T13:15:09;6.93;;;3.20;;
82793;SDS011;72533;52.852;6.176;2024-02-26T13:17:38;7.53;;;4.45;;
82793;SDS011;72533;52.852;6.176;2024-02-26T13:20:09;8.20;;;5.67;;
82793;SDS011;72533;52.852;6.176;2024-02-26T13:22:35;7.03;;;3.47;;
82793;SDS011;72533;52.852;6.176;2024-02-26T13:25:00;7.68;;;5.00;;
82793;SDS011;72533;52.852;6.176;2024-02-26T13:27:28;7.15;;;4.43;;
82793;SDS011;72533;52.852;6.176;2024-02-26T13:32:36;8.65;;;6.70;;
82793;SDS011;72533;52.852;6.176;2024-02-26T13:35:07;9.73;;;4.97;;
82793;SDS011;72533;52.852;6.176;2024-02-26T13:37:34;7.82;;;5.18;;
82793;SDS011;72533;52.852;6.176;2024-02-26T13:39:59;8.85;;;4.63;;
82793;SDS011;72533;52.852;6.176;2024-02-26T13:42:24;7.75;;;5.60;;
82793;SDS011;72533;52.852;6.176;2024-02-26T13:44:50;7.10;;;4.07;;
82793;SDS011;72533;52.852;6.176;2024-02-26T13:47:15;6.63;;;4.03;;
82793;SDS011;72533;52.852;6.176;2024-02-26T13:49:41;7.43;;;3.83;;
82793;SDS011;72533;52.852;6.176;2024-02-26T13:52:06;7.60;;;3.47;;
82793;SDS011;72533;52.852;6.176;2024-02-26T13:54:31;7.07;;;3.20;;
82793;SDS011;72533;52.852;6.176;2024-02-26T13:56:57;8.63;;;4.45;;
82793;SDS011;72533;52.852;6.176;2024-02-26T13:59:22;7.17;;;3.37;;
82793;SDS011;72533;52.852;6.176;2024-02-26T14:01:47;7.60;;;3.67;;
82793;SDS011;72533;52.852;6.176;2024-02-26T14:04:13;10.33;;;5.03;;
82793;SDS011;72533;52.852;6.176;2024-02-26T14:06:38;7.73;;;4.17;;
82793;SDS011;72533;52.852;6.176;2024-02-26T14:09:04;8.40;;;4.65;;
82793;SDS011;72533;52.852;6.176;2024-02-26T14:11:29;8.53;;;5.90;;
82793;SDS011;72533;52.852;6.176;2024-02-26T14:13:54;7.83;;;4.17;;
82793;SDS011;72533;52.852;6.176;2024-02-26T14:16:19;8.43;;;4.37;;
82793;SDS011;72533;52.852;6.176;2024-02-26T14:18:45;7.93;;;4.05;;
82793;SDS011;72533;52.852;6.176;2024-02-26T14:21:11;11.00;;;6.25;;
82793;SDS011;72533;52.852;6.176;2024-02-26T14:23:37;8.93;;;4.57;;
82793;SDS011;72533;52.852;6.176;2024-02-26T14:26:02;7.70;;;4.67;;
82793;SDS011;72533;52.852;6.176;2024-02-26T14:28:28;9.10;;;5.13;;
82793;SDS011;72533;52.852;6.176;2024-02-26T14:30:54;9.02;;;5.88;;
82793;SDS011;72533;52.852;6.176;2024-02-26T14:33:19;9.23;;;4.33;;
82793;SDS011;72533;52.852;6.176;2024-02-26T14:35:44;8.23;;;4.23;;
82793;SDS011;72533;52.852;6.176;2024-02-26T14:38:09;8.77;;;3.80;;
82793;SDS011;72533;52.852;6.176;2024-02-26T14:40:35;8.02;;;3.53;;
82793;SDS011;72533;52.852;6.176;2024-02-26T14:43:00;8.60;;;4.30;;
82793;SDS011;72533;52.852;6.176;2024-02-26T14:45:26;9.47;;;3.73;;